Rhodanus — PGBC — position and weather

sailwx.info

Track history (hours):
 
Tides and Currents Weather Stations Pressure Air Temp Water Temp Dewpoint Dewpoint Depression Visibility Wind Speed Wind Dir Waves Ship Positions

Rhodanus

Last reported at 2015-Jul-31 16:33 UTC. Time now 2015-Jul-31 17:26 UTC.
Position N 43°38' E 004°38'.

Length 89 m; draft 3.8 m.

Type: Cargo ship. MMSI: 245848000.

Date/timePositionNaut miles runAvg speedWind from/ knotsBaromVisibWave heightAir tempDewpointWater temp
2015-Jul-31 16:33N 43°38' E 004°38'4 4.3
2015-Jul-31 15:32N 43°42' E 004°37'0 0.0
2015-Jul-31 14:05N 43°42' E 004°37'0 0.0
2015-Jul-31 13:26N 43°42' E 004°37'0 0.0
2015-Jul-31 12:32N 43°42' E 004°37'0 0.0
2015-Jul-31 11:32N 43°42' E 004°37'0 0.0
2015-Jul-31 10:17N 43°42' E 004°37'0 0.0
2015-Jul-31 07:32N 43°42' E 004°37'0 0.0
2015-Jul-31 06:14N 43°42' E 004°37'0 0.0
2015-Jul-31 05:20N 43°42' E 004°37'0 0.0
2015-Jul-31 00:23N 43°42' E 004°37'0 0.0
2015-Jul-30 21:26N 43°42' E 004°37'0 0.0
2015-Jul-30 18:20N 43°42' E 004°37'0 0.0
2015-Jul-30 17:29N 43°42' E 004°37'0 0.0
2015-Jul-30 16:20N 43°42' E 004°37'0 0.0
2015-Jul-30 15:32N 43°42' E 004°37'0 0.0
2015-Jul-30 14:32N 43°42' E 004°37'0 0.0
2015-Jul-30 13:32N 43°42' E 004°37'0 0.0
2015-Jul-30 12:29N 43°42' E 004°37'0 0.0
2015-Jul-30 11:26N 43°42' E 004°37'0 0.0
2015-Jul-30 10:23N 43°42' E 004°37'0 0.0
2015-Jul-30 08:17N 43°42' E 004°37'0 0.0
2015-Jul-29 18:14N 43°42' E 004°37'0 0.0
2015-Jul-29 17:20N 43°42' E 004°37'0 0.0
2015-Jul-29 16:29N 43°42' E 004°37'0 0.0
2015-Jul-29 15:32N 43°42' E 004°37'0 0.0
2015-Jul-29 14:32N 43°42' E 004°37'0 0.0
2015-Jul-29 13:26N 43°42' E 004°37'0 0.0
2015-Jul-29 12:32N 43°42' E 004°37'0 0.0
2015-Jul-29 11:23N 43°42' E 004°37'0 0.0
2015-Jul-29 10:26N 43°42' E 004°37'0 0.0
2015-Jul-29 09:29N 43°42' E 004°37'0 0.0
2015-Jul-29 07:14N 43°42' E 004°37'0 0.0
2015-Jul-29 06:32N 43°42' E 004°37'0 0.0
2015-Jul-29 05:32N 43°42' E 004°37'0 0.0
2015-Jul-29 04:32N 43°42' E 004°37'0 0.0
2015-Jul-29 03:32N 43°42' E 004°37'0 0.0
2015-Jul-29 02:32N 43°42' E 004°37'0 0.0
2015-Jul-29 01:29N 43°42' E 004°37'0 0.0
2015-Jul-29 00:33N 43°42' E 004°37'5 5.0
2015-Jul-28 23:33N 43°37' E 004°39'7 6.5
2015-Jul-28 22:33N 43°32' E 004°44'7 7.0
2015-Jul-28 21:33N 43°25' E 004°45'3 2.9
2015-Jul-28 20:33N 43°23' E 004°48'6 6.3
2015-Jul-28 19:33N 43°23' E 004°57'8 7.9
2015-Jul-28 18:33N 43°15' E 005°01'7 7.1
2015-Jul-28 17:33N 43°08' E 004°59'9 8.6
2015-Jul-28 16:33N 43°02' E 004°52'9 9.0
2015-Jul-28 15:34N 42°54' E 004°44'9 8.9
2015-Jul-28 14:33N 42°47' E 004°37'8 8.5
2015-Jul-28 13:33N 42°41' E 004°30'8 8.2
2015-Jul-28 12:33N 42°34' E 004°23'123 7.6
2015-Jul-27 20:18N 40°57' E 002°43'8 8.5
2015-Jul-27 19:25N 40°51' E 002°37'7 8.2
2015-Jul-27 18:33N 40°45' E 002°31'8 7.9
2015-Jul-27 17:33N 40°39' E 002°24'8 8.1
2015-Jul-27 16:33N 40°33' E 002°18'8 8.4
2015-Jul-27 15:33N 40°26' E 002°11'9 8.9
2015-Jul-27 14:33N 40°19' E 002°04'9 9.2
2015-Jul-27 13:33N 40°11' E 001°57'9 9.2
2015-Jul-27 12:33N 40°04' E 001°50'9 9.3
2015-Jul-27 11:33N 39°57' E 001°42'11 9.4
2015-Jul-27 10:22N 39°48' E 001°33'112 9.2
2015-Jul-26 22:17N 38°18' E 000°08'11 9.3
2015-Jul-26 21:08N 38°09' E 000°00'6 9.4
2015-Jul-26 20:31N 38°04' W 000°04'9 9.4
2015-Jul-26 19:33N 37°57' W 000°10'9 9.2
2015-Jul-26 18:33N 37°49' W 000°17'10 9.6
2015-Jul-26 17:33N 37°41' W 000°24'9 9.3
2015-Jul-26 16:33N 37°34' W 000°30'10 9.1
2015-Jul-26 15:29N 37°27' W 000°39'8 8.6
2015-Jul-26 14:32N 37°22' W 000°47'  
2015-Jul-23 00:33N 36°38' W 007°43'9 9.3
2015-Jul-22 23:33N 36°37' W 007°54'9 9.3
2015-Jul-22 22:33N 36°36' W 008°06'9 9.4
2015-Jul-22 21:33N 36°35' W 008°17'9 9.3
2015-Jul-22 20:33N 36°34' W 008°29'9 8.8
2015-Jul-22 19:33N 36°33' W 008°40'9 8.6
2015-Jul-22 18:33N 36°31' W 008°50'8 8.2
2015-Jul-22 17:33N 36°30' W 009°00'8 8.4
2015-Jul-22 16:33N 36°31' W 009°11'9 8.5
2015-Jul-22 15:33N 36°35' W 009°20'9 8.7
2015-Jul-22 14:33N 36°42' W 009°28'8 8.5
2015-Jul-22 13:33N 36°48' W 009°34'9 9.1
2015-Jul-22 12:33N 36°57' W 009°37'9 8.9
2015-Jul-22 11:33N 37°06' W 009°40'9 9.1
2015-Jul-22 10:33N 37°15' W 009°42'9 9.2
2015-Jul-22 09:32N 37°24' W 009°45'9 9.4
2015-Jul-22 08:33N 37°33' W 009°47'9 9.0
2015-Jul-22 07:33N 37°42' W 009°50'9 9.0
2015-Jul-22 06:33N 37°50' W 009°52'9 8.8
2015-Jul-22 05:33N 37°59' W 009°55'9 8.9
2015-Jul-22 04:33N 38°08' W 009°58'9 9.0
2015-Jul-22 03:33N 38°16' W 010°00'9 9.1
2015-Jul-22 02:33N 38°25' W 010°03'9 9.3
2015-Jul-22 01:33N 38°34' W 010°05'9 9.1
2015-Jul-22 00:34N 38°43' W 010°08'11 9.4
2015-Jul-21 23:25N 38°54' W 010°08'8 9.8
2015-Jul-21 22:33N 39°02' W 010°08'10 9.9
2015-Jul-21 21:33N 39°12' W 010°08'  
Track history (hours):
 
Tides and Currents Weather Stations Pressure Air Temp Water Temp Dewpoint Dewpoint Depression Visibility Wind Speed Wind Dir Waves Ship Positions

Rhodanus

Last reported at 2015-Jul-31 16:33 UTC. Time now 2015-Jul-31 17:26 UTC.
Position N 43°38' E 004°38'.

Length 89 m; draft 3.8 m.

Type: Cargo ship. MMSI: 245848000.

Date/timePositionNaut miles runAvg speedWind from/ knotsBaromVisibWave heightAir tempDewpointWater temp
2015-Jul-31 16:33N 43°38' E 004°38'4 4.3
2015-Jul-31 15:32N 43°42' E 004°37'0 0.0
2015-Jul-31 14:05N 43°42' E 004°37'0 0.0
2015-Jul-31 13:26N 43°42' E 004°37'0 0.0
2015-Jul-31 12:32N 43°42' E 004°37'0 0.0
2015-Jul-31 11:32N 43°42' E 004°37'0 0.0
2015-Jul-31 10:17N 43°42' E 004°37'0 0.0
2015-Jul-31 07:32N 43°42' E 004°37'0 0.0
2015-Jul-31 06:14N 43°42' E 004°37'0 0.0
2015-Jul-31 05:20N 43°42' E 004°37'0 0.0
2015-Jul-31 00:23N 43°42' E 004°37'0 0.0
2015-Jul-30 21:26N 43°42' E 004°37'0 0.0
2015-Jul-30 18:20N 43°42' E 004°37'0 0.0
2015-Jul-30 17:29N 43°42' E 004°37'0 0.0
2015-Jul-30 16:20N 43°42' E 004°37'0 0.0
2015-Jul-30 15:32N 43°42' E 004°37'0 0.0
2015-Jul-30 14:32N 43°42' E 004°37'0 0.0
2015-Jul-30 13:32N 43°42' E 004°37'0 0.0
2015-Jul-30 12:29N 43°42' E 004°37'0 0.0
2015-Jul-30 11:26N 43°42' E 004°37'0 0.0
2015-Jul-30 10:23N 43°42' E 004°37'0 0.0
2015-Jul-30 08:17N 43°42' E 004°37'0 0.0
2015-Jul-29 18:14N 43°42' E 004°37'0 0.0
2015-Jul-29 17:20N 43°42' E 004°37'0 0.0
2015-Jul-29 16:29N 43°42' E 004°37'0 0.0
2015-Jul-29 15:32N 43°42' E 004°37'0 0.0
2015-Jul-29 14:32N 43°42' E 004°37'0 0.0
2015-Jul-29 13:26N 43°42' E 004°37'0 0.0
2015-Jul-29 12:32N 43°42' E 004°37'0 0.0
2015-Jul-29 11:23N 43°42' E 004°37'0 0.0
2015-Jul-29 10:26N 43°42' E 004°37'0 0.0
2015-Jul-29 09:29N 43°42' E 004°37'0 0.0
2015-Jul-29 07:14N 43°42' E 004°37'0 0.0
2015-Jul-29 06:32N 43°42' E 004°37'0 0.0
2015-Jul-29 05:32N 43°42' E 004°37'0 0.0
2015-Jul-29 04:32N 43°42' E 004°37'0 0.0
2015-Jul-29 03:32N 43°42' E 004°37'0 0.0
2015-Jul-29 02:32N 43°42' E 004°37'0 0.0
2015-Jul-29 01:29N 43°42' E 004°37'0 0.0
2015-Jul-29 00:33N 43°42' E 004°37'5 5.0
2015-Jul-28 23:33N 43°37' E 004°39'7 6.5
2015-Jul-28 22:33N 43°32' E 004°44'7 7.0
2015-Jul-28 21:33N 43°25' E 004°45'3 2.9
2015-Jul-28 20:33N 43°23' E 004°48'6 6.3
2015-Jul-28 19:33N 43°23' E 004°57'8 7.9
2015-Jul-28 18:33N 43°15' E 005°01'7 7.1
2015-Jul-28 17:33N 43°08' E 004°59'9 8.6
2015-Jul-28 16:33N 43°02' E 004°52'9 9.0
2015-Jul-28 15:34N 42°54' E 004°44'9 8.9
2015-Jul-28 14:33N 42°47' E 004°37'8 8.5
2015-Jul-28 13:33N 42°41' E 004°30'8 8.2
2015-Jul-28 12:33N 42°34' E 004°23'123 7.6
2015-Jul-27 20:18N 40°57' E 002°43'8 8.5
2015-Jul-27 19:25N 40°51' E 002°37'7 8.2
2015-Jul-27 18:33N 40°45' E 002°31'8 7.9
2015-Jul-27 17:33N 40°39' E 002°24'8 8.1
2015-Jul-27 16:33N 40°33' E 002°18'8 8.4
2015-Jul-27 15:33N 40°26' E 002°11'9 8.9
2015-Jul-27 14:33N 40°19' E 002°04'9 9.2
2015-Jul-27 13:33N 40°11' E 001°57'9 9.2
2015-Jul-27 12:33N 40°04' E 001°50'9 9.3
2015-Jul-27 11:33N 39°57' E 001°42'11 9.4
2015-Jul-27 10:22N 39°48' E 001°33'112 9.2
2015-Jul-26 22:17N 38°18' E 000°08'11 9.3
2015-Jul-26 21:08N 38°09' E 000°00'6 9.4
2015-Jul-26 20:31N 38°04' W 000°04'9 9.4
2015-Jul-26 19:33N 37°57' W 000°10'9 9.2
2015-Jul-26 18:33N 37°49' W 000°17'10 9.6
2015-Jul-26 17:33N 37°41' W 000°24'9 9.3
2015-Jul-26 16:33N 37°34' W 000°30'10 9.1
2015-Jul-26 15:29N 37°27' W 000°39'8 8.6
2015-Jul-26 14:32N 37°22' W 000°47'  
2015-Jul-23 00:33N 36°38' W 007°43'9 9.3
2015-Jul-22 23:33N 36°37' W 007°54'9 9.3
2015-Jul-22 22:33N 36°36' W 008°06'9 9.4
2015-Jul-22 21:33N 36°35' W 008°17'9 9.3
2015-Jul-22 20:33N 36°34' W 008°29'9 8.8
2015-Jul-22 19:33N 36°33' W 008°40'9 8.6
2015-Jul-22 18:33N 36°31' W 008°50'8 8.2
2015-Jul-22 17:33N 36°30' W 009°00'8 8.4
2015-Jul-22 16:33N 36°31' W 009°11'9 8.5
2015-Jul-22 15:33N 36°35' W 009°20'9 8.7
2015-Jul-22 14:33N 36°42' W 009°28'8 8.5
2015-Jul-22 13:33N 36°48' W 009°34'9 9.1
2015-Jul-22 12:33N 36°57' W 009°37'9 8.9
2015-Jul-22 11:33N 37°06' W 009°40'9 9.1
2015-Jul-22 10:33N 37°15' W 009°42'9 9.2
2015-Jul-22 09:32N 37°24' W 009°45'9 9.4
2015-Jul-22 08:33N 37°33' W 009°47'9 9.0
2015-Jul-22 07:33N 37°42' W 009°50'9 9.0
2015-Jul-22 06:33N 37°50' W 009°52'9 8.8
2015-Jul-22 05:33N 37°59' W 009°55'9 8.9
2015-Jul-22 04:33N 38°08' W 009°58'9 9.0
2015-Jul-22 03:33N 38°16' W 010°00'9 9.1
2015-Jul-22 02:33N 38°25' W 010°03'9 9.3
2015-Jul-22 01:33N 38°34' W 010°05'9 9.1
2015-Jul-22 00:34N 38°43' W 010°08'11 9.4
2015-Jul-21 23:25N 38°54' W 010°08'8 9.8
2015-Jul-21 22:33N 39°02' W 010°08'10 9.9
2015-Jul-21 21:33N 39°12' W 010°08'  

Dump ship's entire track history